Beaumont, TX

11:33 AM CST on December 09, 2016 (GMT -0600)
BeaumontEOC | | Change Station

Elev 33 ft 30.08 °N, 94.10 °W | Updated 24 seconds ago

Clear
Clear
44.3 °F
Feels Like 40 °F
N
7.4
Wind Variable Wind from SW
Gusts 8.0 mph

Today
High -- | Low -- °F
--% Chance of Precip.
Yesterday
High -- | Low -- °F
Precip. -- in
Pressure 30.59 in
Visibility 10.0 miles
Clouds Clear
Windchill 40 °F
Dew Point 27 °F
Humidity 49%
Rainfall 0.00 in
Snow Depth Not available.
7:01 AM 5:16 PM
Waxing Gibbous, 75% visible
METAR KBMT 091715Z AUTO 03007KT 10SM CLR 08/M05 A3059 RMK AO2 T00791052
Pressure 30.59 in
Visibility 10.0 miles
Clouds Clear
Windchill 40 °F
Dew Point 27 °F
Humidity 49%
Rainfall 0.00 in
Snow Depth Not available.
7:01 AM 5:16 PM
Waxing Gibbous, 75% visible
METAR KBMT 091715Z AUTO 03007KT 10SM CLR 08/M05 A3059 RMK AO2 T00791052

10-Day Weather Forecast

Almanac

Astronomy

Dec. 09, 2016 Rise Set
Actual Time
Civil Twilight
Nautical Twilight
Astronomical Twilight
Moon
Length of Visible Light
Length of Day
Tomorrow will be .
, % of the Moon is Illuminated

Today's Extremes

State Highs State Lows

Community

WunderPhotos

Upload Photos

1,956,462 photos uploaded!

WunderBlog® & News

Nearby

Air Quality

  Air Quality AQ Index Pollutant
Not available.

Snow Depth

Station Depth Elevation

Earthquake Activity

City Distance Mag. Time & Date
Minimum magnitude displayed is 2.5.

Coastal Water Temperatures

Place Temperature

Stations

Nearby Weather Stations

Station Location Temp. Windchill Dew Point Humidity Wind Precip. Elev Updated Type
                   

Watches & Warnings

There are currently no watches in effect.